createdAt,value
2023-04-04T00:00:25.458Z,5.90
2023-04-04T00:02:52.166Z,5.47
2023-04-04T00:05:18.938Z,7.70
2023-04-04T00:07:48.719Z,6.18
2023-04-04T00:10:16.514Z,4.63
2023-04-04T00:12:43.861Z,8.70
2023-04-04T00:15:11.144Z,4.30
2023-04-04T00:17:38.096Z,8.18
2023-04-04T00:20:05.244Z,14.20
2023-04-04T00:22:32.116Z,5.43
2023-04-04T00:24:59.126Z,10.80
2023-04-04T00:27:26.289Z,5.03
2023-04-04T00:29:53.325Z,7.63
2023-04-04T00:32:20.298Z,6.28
2023-04-04T00:34:51.656Z,4.85
2023-04-04T00:37:18.407Z,10.70
2023-04-04T00:39:45.063Z,8.38
2023-04-04T00:42:11.956Z,6.95
2023-04-04T00:44:38.735Z,6.22
2023-04-04T00:47:05.471Z,7.32
2023-04-04T00:49:33.706Z,10.70
2023-04-04T00:52:00.395Z,7.68
2023-04-04T00:54:27.053Z,8.85
2023-04-04T00:56:55.658Z,6.30
2023-04-04T00:59:23.788Z,5.38
2023-04-04T01:01:51.096Z,4.63
2023-04-04T01:04:17.915Z,7.47
2023-04-04T01:06:45.785Z,7.97
2023-04-04T01:09:12.933Z,3.53
2023-04-04T01:11:39.959Z,7.82
2023-04-04T01:14:06.753Z,11.60
2023-04-04T01:16:33.546Z,7.80
2023-04-04T01:19:00.494Z,7.40
2023-04-04T01:21:28.310Z,6.63
2023-04-04T01:24:04.730Z,6.88
2023-04-04T01:26:31.885Z,6.65
2023-04-04T01:28:59.540Z,6.22
2023-04-04T01:31:32.654Z,7.65
2023-04-04T01:34:14.302Z,5.82
2023-04-04T01:37:01.954Z,6.28
2023-04-04T01:39:35.583Z,6.45
2023-04-04T01:42:03.349Z,5.88
2023-04-04T01:44:30.130Z,4.75
2023-04-04T01:46:56.773Z,6.63
2023-04-04T01:49:23.878Z,7.18
2023-04-04T01:51:52.320Z,4.05
2023-04-04T01:54:19.298Z,6.28
2023-04-04T01:56:46.624Z,6.72
2023-04-04T01:59:13.306Z,6.43
2023-04-04T02:01:40.042Z,6.68
2023-04-04T02:04:07.418Z,6.75
2023-04-04T02:06:34.138Z,4.80
2023-04-04T02:09:01.122Z,7.20
2023-04-04T02:11:28.043Z,6.10
2023-04-04T02:13:54.701Z,5.95
2023-04-04T02:16:21.565Z,5.57
2023-04-04T02:18:48.393Z,6.18
2023-04-04T02:21:15.201Z,6.78
2023-04-04T02:23:42.601Z,10.35
2023-04-04T02:26:09.199Z,7.38
2023-04-04T02:28:36.008Z,8.15
2023-04-04T02:31:03.033Z,7.72
2023-04-04T02:33:30.483Z,6.68
2023-04-04T02:35:59.024Z,8.25
2023-04-04T02:38:26.436Z,8.70
2023-04-04T02:40:53.384Z,12.50
2023-04-04T02:43:20.276Z,7.75
2023-04-04T02:45:50.300Z,6.97
2023-04-04T02:48:16.970Z,7.35
2023-04-04T02:50:43.920Z,9.60
2023-04-04T02:53:10.775Z,5.53
2023-04-04T02:55:37.414Z,5.18
2023-04-04T02:58:04.186Z,6.57
2023-04-04T03:00:31.259Z,6.50
2023-04-04T03:02:58.359Z,10.10
2023-04-04T03:05:26.757Z,7.38
2023-04-04T03:07:56.305Z,4.90
2023-04-04T03:10:23.932Z,7.07
2023-04-04T03:12:50.908Z,5.15
2023-04-04T03:15:17.639Z,6.70
2023-04-04T03:17:44.992Z,6.00
2023-04-04T03:20:13.588Z,8.18
2023-04-04T03:22:40.522Z,7.13
2023-04-04T03:25:07.567Z,11.02
2023-04-04T03:27:34.768Z,8.68
2023-04-04T03:30:02.307Z,6.20
2023-04-04T03:32:29.046Z,7.18
2023-04-04T03:34:55.763Z,11.65
2023-04-04T03:37:22.894Z,8.27
2023-04-04T03:39:49.559Z,7.80
2023-04-04T03:42:16.785Z,7.43
2023-04-04T03:44:43.395Z,7.93
2023-04-04T03:47:10.204Z,5.57
2023-04-04T03:49:36.865Z,5.43
2023-04-04T03:52:04.069Z,7.50
2023-04-04T03:54:30.825Z,8.68
2023-04-04T03:56:57.924Z,6.18
2023-04-04T03:59:24.827Z,8.90
2023-04-04T04:01:52.469Z,9.13
2023-04-04T04:04:19.202Z,9.98
2023-04-04T04:06:45.923Z,6.65
2023-04-04T04:09:12.707Z,6.90
2023-04-04T04:11:39.327Z,8.27
2023-04-04T04:14:06.015Z,11.68
2023-04-04T04:16:35.330Z,8.00
2023-04-04T04:19:02.289Z,8.73
2023-04-04T04:21:28.919Z,5.05
2023-04-04T04:23:55.582Z,6.57
2023-04-04T04:26:22.373Z,7.18
2023-04-04T04:28:49.126Z,7.03
2023-04-04T04:31:16.099Z,6.70
2023-04-04T04:33:42.713Z,9.13
2023-04-04T04:36:09.497Z,7.15
2023-04-04T04:38:36.648Z,6.03
2023-04-04T04:41:03.354Z,5.68
2023-04-04T04:43:30.033Z,6.95
2023-04-04T04:45:56.748Z,9.05
2023-04-04T04:48:23.481Z,11.27
2023-04-04T04:50:50.463Z,9.07
2023-04-04T04:53:17.055Z,5.13
2023-04-04T04:55:43.699Z,8.88
2023-04-04T04:58:11.006Z,9.73
2023-04-04T05:00:38.414Z,8.75
2023-04-04T05:03:08.425Z,9.40
2023-04-04T05:05:35.314Z,7.85
2023-04-04T05:08:02.780Z,7.68
2023-04-04T05:10:32.666Z,8.38
2023-04-04T05:12:59.300Z,10.07
2023-04-04T05:15:29.130Z,8.93
2023-04-04T05:17:55.865Z,8.00
2023-04-04T05:20:23.323Z,8.27
2023-04-04T05:22:51.512Z,7.78
2023-04-04T05:25:18.402Z,14.38
2023-04-04T05:27:49.069Z,7.32
2023-04-04T05:30:16.937Z,4.68
2023-04-04T05:32:45.639Z,5.82
2023-04-04T05:35:12.935Z,11.70
2023-04-04T05:37:40.673Z,8.48
2023-04-04T05:40:08.216Z,7.53
2023-04-04T05:42:35.182Z,10.13
2023-04-04T05:45:04.644Z,7.93
2023-04-04T05:47:31.377Z,11.00
2023-04-04T05:49:58.036Z,12.70
2023-04-04T05:52:25.340Z,10.48
2023-04-04T05:54:52.011Z,8.48
2023-04-04T05:57:18.637Z,13.15
2023-04-04T05:59:45.324Z,10.38
2023-04-04T06:02:12.353Z,9.77
2023-04-04T06:04:41.012Z,12.05
2023-04-04T06:07:07.840Z,9.43
2023-04-04T06:09:36.156Z,8.43
2023-04-04T06:12:04.736Z,18.00
2023-04-04T06:14:31.454Z,11.85
2023-04-04T06:16:58.736Z,10.13
2023-04-04T06:19:25.377Z,17.88
2023-04-04T06:21:51.999Z,11.02
2023-04-04T06:24:21.978Z,12.07
2023-04-04T06:26:51.547Z,11.65
2023-04-04T06:29:18.503Z,13.73
2023-04-04T06:31:45.802Z,10.65
2023-04-04T06:34:12.524Z,13.68
2023-04-04T06:36:39.207Z,15.57
2023-04-04T06:39:06.289Z,13.25
2023-04-04T06:41:32.930Z,13.18
2023-04-04T06:44:00.369Z,18.45
2023-04-04T06:46:27.587Z,9.63
2023-04-04T06:48:54.866Z,11.15
2023-04-04T06:51:21.759Z,15.73
2023-04-04T06:53:48.797Z,11.38
2023-04-04T06:56:15.947Z,12.65
2023-04-04T06:58:43.128Z,14.77
2023-04-04T07:01:09.792Z,15.57
2023-04-04T07:03:36.491Z,15.27
2023-04-04T07:06:04.470Z,11.07
2023-04-04T07:08:36.284Z,17.42
2023-04-04T07:11:04.521Z,12.73
2023-04-04T07:13:31.151Z,11.43
2023-04-04T07:15:57.726Z,15.15
2023-04-04T07:18:24.422Z,12.68
2023-04-04T07:20:51.224Z,15.00
2023-04-04T07:23:17.903Z,16.75
2023-04-04T07:25:44.865Z,17.27
2023-04-04T07:28:13.490Z,13.02
2023-04-04T07:30:40.704Z,9.18
2023-04-04T07:33:07.624Z,11.88
2023-04-04T07:35:35.217Z,11.65
2023-04-04T07:38:02.915Z,14.32
2023-04-04T07:40:29.716Z,13.07
2023-04-04T07:42:56.313Z,12.02
2023-04-04T07:45:23.185Z,15.98
2023-04-04T07:47:49.872Z,10.35
2023-04-04T07:50:16.925Z,11.07
2023-04-04T07:52:49.834Z,11.55
2023-04-04T07:55:16.893Z,9.90
2023-04-04T07:57:44.670Z,10.98
2023-04-04T08:00:11.981Z,8.70
2023-04-04T08:02:39.512Z,9.57
2023-04-04T08:05:06.926Z,11.65
2023-04-04T08:07:33.654Z,8.73
2023-04-04T08:10:00.462Z,7.55
2023-04-04T08:12:27.125Z,7.95
2023-04-04T08:14:53.825Z,8.68
2023-04-04T08:17:21.036Z,4.22
2023-04-04T08:19:47.709Z,8.40
2023-04-04T08:22:14.391Z,8.13
2023-04-04T08:24:41.227Z,7.78
2023-04-04T08:27:08.003Z,7.95
2023-04-04T08:29:34.833Z,7.25
2023-04-04T08:32:01.461Z,8.80
2023-04-04T08:34:28.632Z,6.43
2023-04-04T08:36:55.976Z,6.13
2023-04-04T08:39:22.730Z,6.32
2023-04-04T08:41:57.638Z,5.10
2023-04-04T08:44:26.115Z,6.32
2023-04-04T08:46:54.181Z,4.18
2023-04-04T08:49:23.581Z,6.88
2023-04-04T08:51:52.331Z,5.63
2023-04-04T08:54:20.899Z,6.20
2023-04-04T08:56:48.166Z,9.57
2023-04-04T08:59:18.953Z,4.18
2023-04-04T09:01:48.693Z,3.58
2023-04-04T09:04:16.179Z,6.15
2023-04-04T09:06:42.996Z,7.70
2023-04-04T09:09:10.002Z,4.78
2023-04-04T09:11:38.309Z,4.20
2023-04-04T09:14:05.081Z,3.60
2023-04-04T09:16:32.034Z,8.13
2023-04-04T09:18:58.783Z,3.33
2023-04-04T09:21:26.304Z,6.80
2023-04-04T09:24:03.118Z,6.10
2023-04-04T09:26:46.615Z,7.38
2023-04-04T09:29:13.909Z,5.22
2023-04-04T09:31:42.380Z,4.63
2023-04-04T09:34:09.023Z,4.57
2023-04-04T09:36:35.763Z,3.38
2023-04-04T09:39:03.664Z,2.25
2023-04-04T09:41:30.449Z,4.60
2023-04-04T09:43:58.304Z,8.55
2023-04-04T09:46:27.069Z,7.30
2023-04-04T09:48:55.440Z,6.07
2023-04-04T09:51:22.088Z,3.78
2023-04-04T09:53:48.968Z,4.65
2023-04-04T09:56:15.725Z,5.13
2023-04-04T09:59:02.761Z,5.57
2023-04-04T10:01:30.931Z,5.38
2023-04-04T10:03:58.306Z,4.63
2023-04-04T10:06:25.495Z,2.90
2023-04-04T10:08:52.721Z,3.95
2023-04-04T10:11:33.908Z,10.88
2023-04-04T10:14:03.601Z,5.07
2023-04-04T10:16:37.108Z,6.15
2023-04-04T10:19:07.742Z,7.75
2023-04-04T10:21:35.134Z,5.75
2023-04-04T10:24:08.731Z,10.20
2023-04-04T10:26:35.516Z,6.47
2023-04-04T10:29:03.675Z,7.20
2023-04-04T10:31:33.271Z,5.15
2023-04-04T10:34:12.381Z,5.10
2023-04-04T10:36:45.904Z,3.22
2023-04-04T10:39:25.069Z,2.97
2023-04-04T10:41:53.251Z,8.73
2023-04-04T10:44:39.990Z,3.30
2023-04-04T10:47:16.186Z,6.03
2023-04-04T10:49:45.825Z,6.15
2023-04-04T10:52:15.340Z,4.07
2023-04-04T10:54:43.918Z,6.88
2023-04-04T10:57:12.707Z,3.88
2023-04-04T11:00:10.479Z,5.32
2023-04-04T11:02:52.482Z,7.40
2023-04-04T11:05:30.480Z,3.40
2023-04-04T11:10:30.772Z,5.65
2023-04-04T11:13:12.821Z,7.88
2023-04-04T11:16:00.982Z,6.32
2023-04-04T11:18:42.787Z,9.13
2023-04-04T11:21:13.775Z,7.50
2023-04-04T11:23:49.715Z,7.90
2023-04-04T11:26:35.248Z,8.82
2023-04-04T11:29:08.578Z,8.35
2023-04-04T11:31:40.352Z,4.60
2023-04-04T11:34:12.696Z,6.80
2023-04-04T11:36:40.292Z,8.82
2023-04-04T11:39:15.550Z,6.97
2023-04-04T11:42:06.751Z,5.85
2023-04-04T11:44:42.976Z,6.47
2023-04-04T11:47:13.624Z,8.13
2023-04-04T11:49:44.805Z,3.47
2023-04-04T11:52:14.322Z,4.10
2023-04-04T11:54:45.232Z,6.85
2023-04-04T11:57:16.229Z,5.38
2023-04-04T11:59:48.446Z,8.45
2023-04-04T12:02:27.411Z,7.72
2023-04-04T12:04:55.337Z,7.65
2023-04-04T12:07:24.732Z,7.85
2023-04-04T12:09:56.370Z,6.63
2023-04-04T12:12:24.694Z,10.88
2023-04-04T12:17:20.201Z,7.05
2023-04-04T12:19:47.109Z,4.72
2023-04-04T12:22:14.016Z,7.63
2023-04-04T12:24:41.235Z,4.85
2023-04-04T12:27:15.514Z,8.15
2023-04-04T12:29:45.491Z,6.22
2023-04-04T12:32:14.265Z,5.47
2023-04-04T12:34:49.888Z,8.50
2023-04-04T12:37:19.438Z,7.13
2023-04-04T12:39:50.625Z,3.97
2023-04-04T12:42:24.759Z,4.55
2023-04-04T12:44:53.774Z,10.32
2023-04-04T12:47:22.464Z,4.55
2023-04-04T12:49:49.852Z,5.53
2023-04-04T12:52:20.494Z,7.00
2023-04-04T12:54:50.973Z,6.57
2023-04-04T12:57:25.528Z,7.95
2023-04-04T12:59:54.532Z,5.90
2023-04-04T13:02:22.944Z,5.20
2023-04-04T13:04:55.913Z,6.43
2023-04-04T13:07:27.799Z,6.07
2023-04-04T13:09:57.820Z,7.13
2023-04-04T13:12:25.049Z,8.13
2023-04-04T13:15:04.980Z,7.38
2023-04-04T13:17:44.659Z,10.48
2023-04-04T13:20:13.458Z,4.00
2023-04-04T13:22:41.318Z,7.55
2023-04-04T13:25:09.515Z,8.63
2023-04-04T13:27:37.463Z,6.50
2023-04-04T13:30:06.257Z,3.75
2023-04-04T13:32:33.667Z,7.68
2023-04-04T13:35:00.350Z,6.05
2023-04-04T13:37:28.187Z,5.57
2023-04-04T13:39:54.919Z,3.38
2023-04-04T13:42:23.274Z,5.68
2023-04-04T13:44:49.952Z,6.85
2023-04-04T13:47:16.947Z,10.50
2023-04-04T13:49:43.626Z,8.02
2023-04-04T13:52:10.585Z,5.40
2023-04-04T13:54:37.208Z,7.40
2023-04-04T13:57:03.871Z,10.00
2023-04-04T13:59:30.652Z,6.85
2023-04-04T14:01:57.718Z,4.88
2023-04-04T14:04:24.577Z,6.50
2023-04-04T14:07:00.239Z,9.88
2023-04-04T14:09:26.970Z,10.13
2023-04-04T14:11:53.583Z,6.10
2023-04-04T14:14:20.479Z,8.82
2023-04-04T14:16:47.276Z,8.02
2023-04-04T14:19:13.986Z,9.65
2023-04-04T14:21:40.614Z,5.25
2023-04-04T14:24:07.411Z,9.57
2023-04-04T14:26:35.082Z,8.13
2023-04-04T14:29:01.806Z,8.43
2023-04-04T14:31:28.835Z,10.13
2023-04-04T14:33:55.596Z,8.77
2023-04-04T14:36:24.391Z,8.18
2023-04-04T14:38:50.994Z,9.88
2023-04-04T14:41:17.769Z,7.82
2023-04-04T14:43:44.944Z,5.90
2023-04-04T14:46:11.836Z,8.05
2023-04-04T14:48:38.790Z,5.75
2023-04-04T14:51:05.614Z,7.25
2023-04-04T14:53:34.487Z,5.50
2023-04-04T14:56:01.108Z,10.57
2023-04-04T14:58:27.785Z,8.27
2023-04-04T15:00:54.815Z,6.72
2023-04-04T15:03:21.794Z,8.57
2023-04-04T15:05:49.311Z,5.22
2023-04-04T15:08:15.969Z,6.93
2023-04-04T15:10:42.933Z,9.75
2023-04-04T15:13:09.880Z,7.65
2023-04-04T15:15:36.496Z,4.50
2023-04-04T15:18:03.261Z,6.63
2023-04-04T15:20:30.011Z,5.68
2023-04-04T15:22:56.601Z,6.40
2023-04-04T15:25:23.376Z,8.23
2023-04-04T15:27:50.001Z,6.47
2023-04-04T15:30:16.673Z,8.27
2023-04-04T15:32:43.297Z,8.57
2023-04-04T15:35:20.831Z,7.95
2023-04-04T15:37:49.156Z,6.57
2023-04-04T15:40:16.810Z,6.45
2023-04-04T15:42:44.133Z,10.70
2023-04-04T15:45:12.140Z,6.85
2023-04-04T15:47:39.488Z,4.00
2023-04-04T15:50:07.186Z,6.47
2023-04-04T15:52:34.046Z,8.98
2023-04-04T15:55:01.010Z,8.93
2023-04-04T15:57:27.657Z,6.00
2023-04-04T15:59:54.239Z,9.32
2023-04-04T16:02:20.899Z,7.85
2023-04-04T16:04:47.506Z,9.38
2023-04-04T16:07:14.192Z,5.55
2023-04-04T16:09:40.851Z,5.80
2023-04-04T16:12:07.639Z,8.63
2023-04-04T16:14:34.326Z,10.65
2023-04-04T16:17:06.369Z,7.20
2023-04-04T16:19:34.048Z,5.90
2023-04-04T16:22:00.728Z,9.13
2023-04-04T16:24:27.891Z,8.05
2023-04-04T16:26:54.597Z,10.80
2023-04-04T16:29:21.607Z,7.55
2023-04-04T16:31:48.467Z,9.68
2023-04-04T16:34:15.521Z,7.63
2023-04-04T16:36:42.194Z,8.93
2023-04-04T16:39:08.907Z,9.25
2023-04-04T16:41:35.634Z,6.35
2023-04-04T16:44:02.283Z,8.63
2023-04-04T16:46:28.959Z,8.35
2023-04-04T16:48:55.668Z,8.07
2023-04-04T16:51:25.465Z,11.40
2023-04-04T16:53:52.047Z,9.77
2023-04-04T16:56:18.756Z,9.40
2023-04-04T16:58:45.780Z,10.13
2023-04-04T17:01:16.655Z,8.23
2023-04-04T17:03:43.464Z,6.65
2023-04-04T17:06:10.601Z,8.73
2023-04-04T17:08:37.269Z,7.75
2023-04-04T17:11:04.169Z,9.88
2023-04-04T17:13:31.373Z,8.05
2023-04-04T17:15:58.266Z,12.80
2023-04-04T17:18:25.000Z,11.48
2023-04-04T17:20:52.253Z,11.30
2023-04-04T17:23:18.885Z,11.10
2023-04-04T17:25:45.515Z,7.78
2023-04-04T17:28:12.125Z,12.73
2023-04-04T17:30:39.041Z,9.15
2023-04-04T17:33:06.015Z,15.32
2023-04-04T17:35:32.693Z,17.42
2023-04-04T17:37:59.311Z,8.23
2023-04-04T17:40:25.907Z,11.32
2023-04-04T17:42:52.535Z,9.98
2023-04-04T17:45:19.396Z,9.73
2023-04-04T17:47:46.203Z,10.52
2023-04-04T17:50:13.027Z,9.10
2023-04-04T17:52:39.776Z,12.25
2023-04-04T17:55:08.675Z,8.75
2023-04-04T17:57:35.922Z,9.73
2023-04-04T18:00:03.467Z,9.88
2023-04-04T18:02:30.115Z,8.68
2023-04-04T18:04:58.425Z,9.32
2023-04-04T18:07:25.918Z,9.40
2023-04-04T18:09:52.539Z,6.95
2023-04-04T18:12:19.225Z,14.43
2023-04-04T18:14:45.946Z,10.25
2023-04-04T18:17:13.194Z,9.63
2023-04-04T18:19:41.422Z,9.73
2023-04-04T18:22:08.411Z,9.48
2023-04-04T18:24:35.102Z,11.02
2023-04-04T18:27:01.872Z,10.02
2023-04-04T18:29:31.030Z,12.27
2023-04-04T18:32:01.256Z,12.00
2023-04-04T18:34:28.017Z,7.05
2023-04-04T18:36:54.641Z,11.82
2023-04-04T18:39:21.235Z,10.13
2023-04-04T18:41:48.029Z,8.60
2023-04-04T18:44:14.988Z,13.55
2023-04-04T18:46:42.278Z,10.52
2023-04-04T18:49:09.062Z,13.82
2023-04-04T18:51:35.724Z,9.90
2023-04-04T18:54:03.474Z,10.35
2023-04-04T18:56:30.146Z,13.05
2023-04-04T18:58:56.869Z,9.15
2023-04-04T19:01:24.368Z,11.20
2023-04-04T19:03:53.764Z,12.23
2023-04-04T19:06:26.628Z,13.23
2023-04-04T19:08:57.418Z,9.00
2023-04-04T19:11:24.544Z,15.10
2023-04-04T19:13:51.170Z,8.50
2023-04-04T19:16:18.827Z,13.00
2023-04-04T19:18:45.647Z,9.95
2023-04-04T19:21:12.218Z,13.85
2023-04-04T19:23:38.971Z,15.75
2023-04-04T19:26:06.590Z,9.15
2023-04-04T19:28:33.320Z,11.27
2023-04-04T19:31:01.772Z,12.15
2023-04-04T19:33:32.448Z,10.85
2023-04-04T19:36:11.717Z,17.80
2023-04-04T19:38:40.078Z,12.45
2023-04-04T19:41:18.992Z,15.80
2023-04-04T19:43:47.123Z,16.92
2023-04-04T19:46:28.935Z,15.57
2023-04-04T19:48:57.306Z,12.38
2023-04-04T19:51:23.947Z,12.70
2023-04-04T19:53:53.552Z,14.02
2023-04-04T19:56:23.098Z,16.38
2023-04-04T19:59:10.849Z,11.52
2023-04-04T20:01:44.593Z,20.15
2023-04-04T20:04:14.123Z,12.63
2023-04-04T20:06:42.396Z,10.88
2023-04-04T20:09:34.439Z,11.40
2023-04-04T20:12:01.203Z,14.13
2023-04-04T20:14:28.745Z,20.90
2023-04-04T20:16:55.406Z,15.18
2023-04-04T20:19:26.170Z,15.50
2023-04-04T20:21:52.951Z,13.15
2023-04-04T20:24:21.023Z,21.25
2023-04-04T20:26:55.344Z,13.50
2023-04-04T20:29:30.338Z,20.40
2023-04-04T20:32:08.376Z,14.18
2023-04-04T20:34:39.264Z,14.52
2023-04-04T20:37:25.922Z,17.70
2023-04-04T20:40:09.286Z,13.98
2023-04-04T20:42:40.724Z,13.65
2023-04-04T20:45:10.255Z,10.02
2023-04-04T20:47:46.782Z,17.45
2023-04-04T20:50:17.024Z,13.13
2023-04-04T20:52:52.849Z,13.32
2023-04-04T20:55:20.916Z,14.82
2023-04-04T20:57:47.826Z,17.20
2023-04-04T21:00:29.754Z,12.68
2023-04-04T21:03:00.255Z,15.88
2023-04-04T21:05:29.207Z,11.43
2023-04-04T21:07:56.279Z,16.90
2023-04-04T21:10:28.995Z,16.17
2023-04-04T21:12:56.695Z,14.15
2023-04-04T21:15:28.563Z,13.73
2023-04-04T21:18:00.124Z,16.60
2023-04-04T21:20:45.862Z,15.88
2023-04-04T21:23:27.512Z,13.75
2023-04-04T21:26:02.173Z,14.82
2023-04-04T21:30:56.615Z,14.93
2023-04-04T21:33:23.283Z,20.40
2023-04-04T21:35:52.485Z,14.60
2023-04-04T21:38:29.771Z,13.23
2023-04-04T21:41:00.393Z,13.40
2023-04-04T21:43:27.881Z,17.40
2023-04-04T21:45:57.858Z,15.45
2023-04-04T21:48:24.859Z,18.63
2023-04-04T21:50:51.693Z,14.23
2023-04-04T21:53:18.549Z,11.85
2023-04-04T21:55:45.434Z,12.63
2023-04-04T21:58:12.840Z,12.98
2023-04-04T22:00:39.850Z,12.20
2023-04-04T22:03:07.239Z,16.20
2023-04-04T22:05:38.904Z,13.75
2023-04-04T22:08:06.530Z,14.23
2023-04-04T22:10:33.460Z,11.00
2023-04-04T22:13:00.183Z,15.20
2023-04-04T22:15:29.755Z,15.05
2023-04-04T22:18:03.672Z,17.73
2023-04-04T22:20:32.102Z,9.88
2023-04-04T22:22:59.445Z,15.27
2023-04-04T22:25:27.216Z,19.30
2023-04-04T22:27:53.980Z,14.05
2023-04-04T22:30:21.636Z,18.85
2023-04-04T22:32:48.692Z,15.15
2023-04-04T22:35:15.387Z,15.43
2023-04-04T22:37:42.021Z,16.55
2023-04-04T22:40:13.182Z,18.30
2023-04-04T22:42:39.762Z,17.58
2023-04-04T22:45:07.123Z,15.43
2023-04-04T22:47:34.048Z,20.10
2023-04-04T22:50:04.752Z,19.67
2023-04-04T22:52:32.025Z,19.73
2023-04-04T22:54:59.768Z,14.88
2023-04-04T22:57:26.450Z,14.20
2023-04-04T22:59:53.031Z,18.73
2023-04-04T23:02:19.621Z,19.50
2023-04-04T23:04:47.412Z,23.27
2023-04-04T23:07:14.290Z,22.00
2023-04-04T23:09:41.363Z,20.88
2023-04-04T23:12:08.154Z,13.30
2023-04-04T23:14:38.889Z,21.27
2023-04-04T23:17:07.035Z,18.65
2023-04-04T23:19:33.936Z,17.42
2023-04-04T23:22:00.718Z,19.83
2023-04-04T23:24:27.690Z,18.60
2023-04-04T23:26:54.351Z,16.67
2023-04-04T23:29:21.059Z,17.58
2023-04-04T23:31:48.014Z,17.38
2023-04-04T23:34:14.917Z,15.77
2023-04-04T23:36:41.640Z,16.42
2023-04-04T23:39:08.301Z,16.65
2023-04-04T23:41:34.961Z,14.18
2023-04-04T23:44:01.605Z,11.02
2023-04-04T23:46:30.548Z,17.23
2023-04-04T23:48:57.246Z,15.88
2023-04-04T23:51:25.617Z,17.60
2023-04-04T23:53:52.650Z,14.27
2023-04-04T23:56:19.369Z,15.82
2023-04-04T23:58:46.120Z,17.63
